createdAt,value
2022-08-05T00:02:43.844Z,101136.22
2022-08-05T00:08:54.846Z,101147.03
2022-08-05T00:15:54.560Z,101144.06
2022-08-05T00:21:25.725Z,101146.16
2022-08-05T00:27:36.343Z,101153.63
2022-08-05T00:34:53.547Z,101149.25
2022-08-05T00:40:05.913Z,101139.09
2022-08-05T00:46:13.233Z,101138.56
2022-08-05T00:52:18.135Z,101154.06
2022-08-05T00:58:33.520Z,101136.47
2022-08-05T01:04:37.077Z,101131.91
2022-08-05T01:10:51.510Z,101125.63
2022-08-05T01:17:05.281Z,101123.09
2022-08-05T01:23:22.705Z,101124.13
2022-08-05T01:29:34.961Z,101100.06
2022-08-05T01:35:51.259Z,101099.66
2022-08-05T01:41:59.055Z,101093.03
2022-08-05T01:48:10.397Z,101104.00
2022-08-05T01:54:18.016Z,101089.38
2022-08-05T02:00:30.457Z,101083.09
2022-08-05T02:06:38.361Z,101081.19
2022-08-05T02:12:54.694Z,101083.97
2022-08-05T02:19:02.427Z,101084.47
2022-08-05T02:25:17.836Z,101088.50
2022-08-05T02:31:28.411Z,101097.56
2022-08-05T02:37:40.027Z,101092.31
2022-08-05T02:44:06.627Z,101081.31
2022-08-05T02:50:14.486Z,101090.19
2022-08-05T02:56:22.564Z,101102.03
2022-08-05T03:02:32.997Z,101105.34
2022-08-05T03:08:37.609Z,101125.38
2022-08-05T03:14:46.317Z,101129.59
2022-08-05T03:20:53.146Z,101102.41
2022-08-05T03:26:59.481Z,101094.72
2022-08-05T03:33:06.123Z,101080.16
2022-08-05T03:39:19.871Z,101059.63
2022-08-05T03:45:30.098Z,101057.53
2022-08-05T03:52:37.775Z,101063.63
2022-08-05T03:58:29.079Z,101049.03
2022-08-05T04:04:35.229Z,101041.72
2022-08-05T04:10:42.878Z,101046.94
2022-08-05T04:16:48.208Z,101037.94
2022-08-05T04:22:51.797Z,101036.84
2022-08-05T04:28:55.039Z,101034.75
2022-08-05T04:35:00.115Z,101028.81
2022-08-05T04:41:03.615Z,101033.72
2022-08-05T04:47:10.194Z,101033.25
2022-08-05T04:53:17.210Z,101013.63
2022-08-05T04:59:36.681Z,101022.50
2022-08-05T05:06:39.654Z,101032.03
2022-08-05T05:12:08.458Z,101051.53
2022-08-05T05:18:15.037Z,101031.50
2022-08-05T05:24:56.310Z,101045.28
2022-08-05T05:30:57.081Z,101059.84
2022-08-05T05:37:00.617Z,101055.88
2022-08-05T05:43:05.079Z,101045.44
2022-08-05T05:49:22.793Z,101041.75
2022-08-05T05:55:52.219Z,101050.84
2022-08-05T06:01:57.598Z,101050.00
2022-08-05T06:08:03.867Z,101056.09
2022-08-05T06:14:07.657Z,101042.88
2022-08-05T06:20:21.532Z,101054.97
2022-08-05T06:26:26.930Z,101057.91
2022-08-05T06:32:37.400Z,101045.72
2022-08-05T06:38:46.924Z,101046.75
2022-08-05T06:44:52.029Z,101054.25
2022-08-05T06:50:57.006Z,101046.75
2022-08-05T06:57:56.615Z,101047.81
2022-08-05T07:03:32.545Z,101037.53
2022-08-05T07:09:40.472Z,101033.16
2022-08-05T07:16:25.669Z,101040.00
2022-08-05T07:22:41.953Z,101043.84
2022-08-05T07:28:45.821Z,101031.97
2022-08-05T07:34:50.213Z,101032.50
2022-08-05T07:42:09.014Z,101041.91
2022-08-05T07:47:27.450Z,101038.28
2022-08-05T07:53:50.253Z,101059.94
2022-08-05T07:59:56.002Z,101066.75
2022-08-05T08:05:59.631Z,101076.88
2022-08-05T08:12:11.225Z,101097.28
2022-08-05T08:18:20.891Z,101128.03
2022-08-05T08:24:34.758Z,101128.91
2022-08-05T08:30:49.885Z,101130.66
2022-08-05T08:37:01.766Z,101137.44
2022-08-05T08:45:21.000Z,101152.25
2022-08-05T08:50:06.070Z,101156.97
2022-08-05T08:56:05.999Z,101143.31
2022-08-05T09:02:10.029Z,101158.03
2022-08-05T09:08:16.768Z,101177.88
2022-08-05T09:14:56.346Z,101173.03
2022-08-05T09:20:47.229Z,101181.94
2022-08-05T09:26:53.223Z,101183.00
2022-08-05T09:33:02.979Z,101185.75
2022-08-05T09:39:16.776Z,101184.34
2022-08-05T09:46:06.728Z,101195.69
2022-08-05T09:51:49.896Z,101194.34
2022-08-05T09:57:54.738Z,101198.19
2022-08-05T10:04:10.251Z,101196.91
2022-08-05T10:10:17.939Z,101188.88
2022-08-05T10:16:37.838Z,101189.94
2022-08-05T10:22:50.748Z,101186.09
2022-08-05T10:28:56.499Z,101174.22
2022-08-05T10:35:01.550Z,101182.59
2022-08-05T10:41:13.908Z,101164.28
2022-08-05T10:47:26.093Z,101165.31
2022-08-05T10:53:39.188Z,101170.38
2022-08-05T11:00:03.553Z,101172.28
2022-08-05T11:06:17.863Z,101167.25
2022-08-05T11:12:50.852Z,101140.88
2022-08-05T11:20:10.871Z,101130.94
2022-08-05T11:26:09.967Z,101142.59
2022-08-05T11:32:28.085Z,101180.09
2022-08-05T11:38:54.862Z,101158.00
2022-08-05T11:45:14.288Z,101187.50
2022-08-05T11:51:44.485Z,101196.38
2022-08-05T11:58:09.680Z,101211.78
2022-08-05T12:04:16.724Z,101175.88
2022-08-05T12:10:24.769Z,101151.41
2022-08-05T12:16:30.901Z,101137.00
2022-08-05T12:22:35.867Z,101145.16
2022-08-05T12:28:43.339Z,101157.81
2022-08-05T12:34:52.513Z,101179.56
2022-08-05T12:40:59.095Z,101170.16
2022-08-05T12:47:03.878Z,101191.56
2022-08-05T12:53:07.490Z,101192.75
2022-08-05T12:59:20.784Z,101165.84
2022-08-05T13:05:37.450Z,101141.22
2022-08-05T13:12:02.701Z,101145.94
2022-08-05T13:18:07.806Z,101155.41
2022-08-05T13:24:11.419Z,101157.16
2022-08-05T13:30:32.957Z,101145.03
2022-08-05T13:36:40.577Z,101166.97
2022-08-05T13:42:44.091Z,101170.75
2022-08-05T13:48:58.547Z,101155.75
2022-08-05T13:55:07.862Z,101150.50
2022-08-05T14:01:13.558Z,101160.81
2022-08-05T14:07:56.309Z,101168.13
2022-08-05T14:13:42.154Z,101166.78
2022-08-05T14:19:56.108Z,101177.88
2022-08-05T14:26:03.191Z,101197.31
2022-08-05T14:32:15.962Z,101212.91
2022-08-05T14:38:34.330Z,101221.28
2022-08-05T14:44:39.671Z,101224.88
2022-08-05T14:50:47.101Z,101239.13
2022-08-05T14:56:53.732Z,101226.19
2022-08-05T15:02:58.415Z,101222.38
2022-08-05T15:09:04.234Z,101218.97
2022-08-05T15:15:15.523Z,101224.44
2022-08-05T15:21:21.071Z,101233.84
2022-08-05T15:27:26.634Z,101231.53
2022-08-05T15:34:04.545Z,101242.56
2022-08-05T15:41:03.339Z,101251.72
2022-08-05T15:46:27.970Z,101257.16
2022-08-05T15:52:54.268Z,101251.72
2022-08-05T15:58:56.341Z,101244.56
2022-08-05T16:05:01.329Z,101235.72
2022-08-05T16:11:05.204Z,101242.34
2022-08-05T16:17:09.499Z,101239.56
2022-08-05T16:23:14.509Z,101251.47
2022-08-05T16:29:20.031Z,101257.44
2022-08-05T16:35:28.260Z,101259.03
2022-08-05T16:42:15.370Z,101281.47
2022-08-05T16:48:03.033Z,101288.06
2022-08-05T16:54:16.005Z,101289.72
2022-08-05T17:00:33.979Z,101297.63
2022-08-05T17:06:38.282Z,101307.78
2022-08-05T17:12:50.656Z,101323.03
2022-08-05T17:18:57.222Z,101334.59
2022-08-05T17:25:01.051Z,101342.91
2022-08-05T17:31:08.184Z,101355.38
2022-08-05T17:37:39.755Z,101352.47
2022-08-05T17:43:50.615Z,101363.03
2022-08-05T17:50:03.778Z,101378.03
2022-08-05T17:56:09.632Z,101388.47
2022-08-05T18:02:13.563Z,101395.31
2022-08-05T18:08:19.798Z,101412.59
2022-08-05T18:14:24.515Z,101409.47
2022-08-05T18:20:31.994Z,101418.00
2022-08-05T18:26:35.915Z,101421.06
2022-08-05T18:32:40.577Z,101431.94
2022-08-05T18:38:57.429Z,101438.41
2022-08-05T18:45:01.077Z,101461.31
2022-08-05T18:52:03.389Z,101466.00
2022-08-05T18:57:53.492Z,101478.91
2022-08-05T19:04:05.609Z,101454.16
2022-08-05T19:10:15.090Z,101472.59
2022-08-05T19:16:28.412Z,101470.59
2022-08-05T19:22:34.256Z,101472.50
2022-08-05T19:28:44.856Z,101487.13
2022-08-05T19:34:54.963Z,101493.75
2022-08-05T19:40:59.236Z,101504.00
2022-08-05T19:47:04.296Z,101501.50
2022-08-05T19:53:09.358Z,101492.72
2022-08-05T19:59:51.097Z,101497.53
2022-08-05T20:05:50.009Z,101484.19
2022-08-05T20:11:54.684Z,101486.72
2022-08-05T20:18:02.087Z,101496.25
2022-08-05T20:24:11.623Z,101511.59
2022-08-05T20:30:15.313Z,101506.63
2022-08-05T20:36:24.171Z,101529.91
2022-08-05T20:42:32.079Z,101532.56
2022-08-05T20:48:37.081Z,101525.50
2022-08-05T20:55:15.843Z,101523.91
2022-08-05T21:01:07.719Z,101526.25
2022-08-05T21:07:11.406Z,101533.88
2022-08-05T21:13:25.976Z,101558.84
2022-08-05T21:19:47.085Z,101563.44
2022-08-05T21:25:55.409Z,101559.72
2022-08-05T21:31:59.028Z,101554.47
2022-08-05T21:38:04.049Z,101558.81
2022-08-05T21:44:07.611Z,101563.34
2022-08-05T21:50:18.808Z,101571.25
2022-08-05T21:56:27.033Z,101586.44
2022-08-05T22:02:30.498Z,101580.03
2022-08-05T22:08:33.995Z,101585.16
2022-08-05T22:14:39.143Z,101606.38
2022-08-05T22:20:44.170Z,101598.31
2022-08-05T22:27:06.859Z,101603.41
2022-08-05T22:33:16.168Z,101616.88
2022-08-05T22:39:21.503Z,101614.25
2022-08-05T22:45:26.407Z,101608.94
2022-08-05T22:52:05.909Z,101608.97
2022-08-05T22:57:55.633Z,101594.78
2022-08-05T23:04:01.739Z,101595.59
2022-08-05T23:10:07.910Z,101604.81
2022-08-05T23:16:11.675Z,101609.16
2022-08-05T23:22:14.904Z,101631.03
2022-08-05T23:28:28.783Z,101619.97
2022-08-05T23:34:33.202Z,101608.50
2022-08-05T23:40:38.072Z,101622.91
2022-08-05T23:46:43.405Z,101640.88
2022-08-05T23:52:50.168Z,101650.63
2022-08-05T23:58:54.262Z,101649.75
